sensor_id;sensor_type;location;lat;lon;timestamp;P1;durP1;ratioP1;P2;durP2;ratioP2
8319;SDS011;4197;42.130;24.746;2024-03-08T00:00:50;38.93;;;23.73;;
8319;SDS011;4197;42.130;24.746;2024-03-08T00:03:19;39.43;;;22.87;;
8319;SDS011;4197;42.130;24.746;2024-03-08T00:05:47;35.73;;;22.73;;
8319;SDS011;4197;42.130;24.746;2024-03-08T00:08:15;33.53;;;22.20;;
8319;SDS011;4197;42.130;24.746;2024-03-08T00:10:44;36.97;;;23.30;;
8319;SDS011;4197;42.130;24.746;2024-03-08T00:13:12;37.10;;;23.80;;
8319;SDS011;4197;42.130;24.746;2024-03-08T00:15:41;44.43;;;23.17;;
8319;SDS011;4197;42.130;24.746;2024-03-08T00:18:11;39.73;;;22.63;;
8319;SDS011;4197;42.130;24.746;2024-03-08T00:20:39;34.97;;;22.83;;
8319;SDS011;4197;42.130;24.746;2024-03-08T00:23:08;45.47;;;23.30;;
8319;SDS011;4197;42.130;24.746;2024-03-08T00:25:37;36.70;;;22.90;;
8319;SDS011;4197;42.130;24.746;2024-03-08T00:28:05;37.43;;;23.27;;
8319;SDS011;4197;42.130;24.746;2024-03-08T00:30:34;41.13;;;24.93;;
8319;SDS011;4197;42.130;24.746;2024-03-08T00:33:02;34.83;;;23.87;;
8319;SDS011;4197;42.130;24.746;2024-03-08T00:35:32;36.63;;;22.93;;
8319;SDS011;4197;42.130;24.746;2024-03-08T00:38:01;35.87;;;22.70;;
8319;SDS011;4197;42.130;24.746;2024-03-08T00:40:30;37.37;;;24.07;;
8319;SDS011;4197;42.130;24.746;2024-03-08T00:42:59;36.63;;;22.40;;
8319;SDS011;4197;42.130;24.746;2024-03-08T00:45:30;35.90;;;22.87;;
8319;SDS011;4197;42.130;24.746;2024-03-08T00:47:58;38.77;;;24.13;;
8319;SDS011;4197;42.130;24.746;2024-03-08T00:50:27;33.20;;;23.57;;
8319;SDS011;4197;42.130;24.746;2024-03-08T00:52:57;39.73;;;24.70;;
8319;SDS011;4197;42.130;24.746;2024-03-08T00:55:25;34.47;;;23.20;;
8319;SDS011;4197;42.130;24.746;2024-03-08T00:57:53;34.93;;;22.97;;
8319;SDS011;4197;42.130;24.746;2024-03-08T01:00:22;36.60;;;23.87;;
8319;SDS011;4197;42.130;24.746;2024-03-08T01:02:50;32.63;;;22.43;;
8319;SDS011;4197;42.130;24.746;2024-03-08T01:05:19;39.10;;;25.30;;
8319;SDS011;4197;42.130;24.746;2024-03-08T01:07:47;38.00;;;23.63;;
8319;SDS011;4197;42.130;24.746;2024-03-08T01:10:17;33.27;;;22.50;;
8319;SDS011;4197;42.130;24.746;2024-03-08T01:12:46;38.07;;;24.67;;
8319;SDS011;4197;42.130;24.746;2024-03-08T01:15:14;36.83;;;23.90;;
8319;SDS011;4197;42.130;24.746;2024-03-08T01:17:42;42.00;;;23.67;;
8319;SDS011;4197;42.130;24.746;2024-03-08T01:20:11;38.37;;;24.03;;
8319;SDS011;4197;42.130;24.746;2024-03-08T01:22:40;34.57;;;24.47;;
8319;SDS011;4197;42.130;24.746;2024-03-08T01:25:08;36.30;;;24.83;;
8319;SDS011;4197;42.130;24.746;2024-03-08T01:27:38;41.20;;;24.03;;
8319;SDS011;4197;42.130;24.746;2024-03-08T01:30:06;36.10;;;23.53;;
8319;SDS011;4197;42.130;24.746;2024-03-08T01:32:36;36.13;;;24.07;;
8319;SDS011;4197;42.130;24.746;2024-03-08T01:35:05;36.23;;;23.07;;
8319;SDS011;4197;42.130;24.746;2024-03-08T01:37:36;39.40;;;24.03;;
8319;SDS011;4197;42.130;24.746;2024-03-08T01:40:05;40.37;;;23.83;;
8319;SDS011;4197;42.130;24.746;2024-03-08T01:42:35;34.50;;;23.10;;
8319;SDS011;4197;42.130;24.746;2024-03-08T01:45:06;33.60;;;23.50;;
8319;SDS011;4197;42.130;24.746;2024-03-08T01:47:35;34.07;;;23.63;;
8319;SDS011;4197;42.130;24.746;2024-03-08T01:50:05;32.80;;;22.27;;
8319;SDS011;4197;42.130;24.746;2024-03-08T01:52:35;34.07;;;21.67;;
8319;SDS011;4197;42.130;24.746;2024-03-08T01:55:04;38.83;;;22.97;;
8319;SDS011;4197;42.130;24.746;2024-03-08T01:57:34;34.13;;;22.27;;
8319;SDS011;4197;42.130;24.746;2024-03-08T02:00:07;28.20;;;20.90;;
8319;SDS011;4197;42.130;24.746;2024-03-08T02:02:38;34.80;;;22.07;;
8319;SDS011;4197;42.130;24.746;2024-03-08T02:05:11;30.93;;;21.30;;
8319;SDS011;4197;42.130;24.746;2024-03-08T02:07:40;32.23;;;21.57;;
8319;SDS011;4197;42.130;24.746;2024-03-08T02:10:10;31.40;;;21.40;;
8319;SDS011;4197;42.130;24.746;2024-03-08T02:12:39;32.47;;;21.07;;
8319;SDS011;4197;42.130;24.746;2024-03-08T02:15:09;34.40;;;21.97;;
8319;SDS011;4197;42.130;24.746;2024-03-08T02:17:37;30.73;;;21.37;;
8319;SDS011;4197;42.130;24.746;2024-03-08T02:20:06;31.23;;;21.73;;
8319;SDS011;4197;42.130;24.746;2024-03-08T02:22:38;28.90;;;19.67;;
8319;SDS011;4197;42.130;24.746;2024-03-08T02:25:08;31.03;;;20.17;;
8319;SDS011;4197;42.130;24.746;2024-03-08T02:27:37;28.70;;;18.97;;
8319;SDS011;4197;42.130;24.746;2024-03-08T02:30:05;28.40;;;20.17;;
8319;SDS011;4197;42.130;24.746;2024-03-08T02:32:36;31.97;;;21.03;;
8319;SDS011;4197;42.130;24.746;2024-03-08T02:35:05;28.37;;;19.80;;
8319;SDS011;4197;42.130;24.746;2024-03-08T02:37:34;33.93;;;20.23;;
8319;SDS011;4197;42.130;24.746;2024-03-08T02:40:04;31.57;;;21.23;;
8319;SDS011;4197;42.130;24.746;2024-03-08T02:42:34;27.73;;;20.23;;
8319;SDS011;4197;42.130;24.746;2024-03-08T02:45:02;30.07;;;20.13;;
8319;SDS011;4197;42.130;24.746;2024-03-08T02:47:32;27.30;;;19.27;;
8319;SDS011;4197;42.130;24.746;2024-03-08T02:50:02;28.93;;;19.03;;
8319;SDS011;4197;42.130;24.746;2024-03-08T02:52:30;27.27;;;19.37;;
8319;SDS011;4197;42.130;24.746;2024-03-08T02:55:00;29.20;;;19.83;;
8319;SDS011;4197;42.130;24.746;2024-03-08T02:57:29;26.43;;;18.77;;
8319;SDS011;4197;42.130;24.746;2024-03-08T02:59:58;27.07;;;18.63;;
8319;SDS011;4197;42.130;24.746;2024-03-08T03:02:27;29.20;;;18.90;;
8319;SDS011;4197;42.130;24.746;2024-03-08T03:04:55;27.43;;;18.67;;
8319;SDS011;4197;42.130;24.746;2024-03-08T03:07:24;32.50;;;20.23;;
8319;SDS011;4197;42.130;24.746;2024-03-08T03:09:54;29.57;;;19.37;;
8319;SDS011;4197;42.130;24.746;2024-03-08T03:12:22;28.43;;;19.13;;
8319;SDS011;4197;42.130;24.746;2024-03-08T03:14:52;32.60;;;20.30;;
8319;SDS011;4197;42.130;24.746;2024-03-08T03:17:21;32.23;;;21.63;;
8319;SDS011;4197;42.130;24.746;2024-03-08T03:19:50;31.63;;;21.63;;
8319;SDS011;4197;42.130;24.746;2024-03-08T03:22:18;35.97;;;26.50;;
8319;SDS011;4197;42.130;24.746;2024-03-08T03:24:47;37.47;;;25.77;;
8319;SDS011;4197;42.130;24.746;2024-03-08T03:27:16;34.37;;;21.63;;
8319;SDS011;4197;42.130;24.746;2024-03-08T03:29:46;39.20;;;24.50;;
8319;SDS011;4197;42.130;24.746;2024-03-08T03:32:17;45.87;;;33.50;;
8319;SDS011;4197;42.130;24.746;2024-03-08T03:34:46;35.43;;;22.17;;
8319;SDS011;4197;42.130;24.746;2024-03-08T03:37:14;33.57;;;22.60;;
8319;SDS011;4197;42.130;24.746;2024-03-08T03:39:44;35.07;;;22.83;;
8319;SDS011;4197;42.130;24.746;2024-03-08T03:42:16;34.67;;;22.13;;
8319;SDS011;4197;42.130;24.746;2024-03-08T03:44:44;35.93;;;23.40;;
8319;SDS011;4197;42.130;24.746;2024-03-08T03:47:15;32.83;;;21.57;;
8319;SDS011;4197;42.130;24.746;2024-03-08T03:49:46;36.77;;;22.93;;
8319;SDS011;4197;42.130;24.746;2024-03-08T03:52:14;46.07;;;27.27;;
8319;SDS011;4197;42.130;24.746;2024-03-08T03:54:43;34.80;;;22.63;;
8319;SDS011;4197;42.130;24.746;2024-03-08T03:57:11;34.83;;;23.40;;
8319;SDS011;4197;42.130;24.746;2024-03-08T03:59:40;38.20;;;23.67;;
8319;SDS011;4197;42.130;24.746;2024-03-08T04:02:09;35.87;;;21.43;;
8319;SDS011;4197;42.130;24.746;2024-03-08T04:04:37;40.03;;;24.70;;
8319;SDS011;4197;42.130;24.746;2024-03-08T04:07:07;37.83;;;23.27;;
8319;SDS011;4197;42.130;24.746;2024-03-08T04:09:37;39.30;;;24.50;;
8319;SDS011;4197;42.130;24.746;2024-03-08T04:12:05;39.53;;;24.40;;
8319;SDS011;4197;42.130;24.746;2024-03-08T04:14:36;42.97;;;25.83;;
8319;SDS011;4197;42.130;24.746;2024-03-08T04:17:09;41.80;;;26.43;;
8319;SDS011;4197;42.130;24.746;2024-03-08T04:19:39;38.60;;;23.97;;
8319;SDS011;4197;42.130;24.746;2024-03-08T04:22:09;48.50;;;28.27;;
8319;SDS011;4197;42.130;24.746;2024-03-08T04:24:37;46.87;;;29.33;;
8319;SDS011;4197;42.130;24.746;2024-03-08T04:27:06;40.47;;;25.00;;
8319;SDS011;4197;42.130;24.746;2024-03-08T04:29:33;42.57;;;26.90;;
8319;SDS011;4197;42.130;24.746;2024-03-08T04:32:05;47.77;;;26.03;;
8319;SDS011;4197;42.130;24.746;2024-03-08T04:34:35;45.27;;;26.50;;
8319;SDS011;4197;42.130;24.746;2024-03-08T04:37:03;48.63;;;27.70;;
8319;SDS011;4197;42.130;24.746;2024-03-08T04:39:33;52.47;;;27.67;;
8319;SDS011;4197;42.130;24.746;2024-03-08T04:42:02;44.77;;;26.53;;
8319;SDS011;4197;42.130;24.746;2024-03-08T04:44:33;46.03;;;25.77;;
8319;SDS011;4197;42.130;24.746;2024-03-08T04:47:01;48.63;;;26.93;;
8319;SDS011;4197;42.130;24.746;2024-03-08T04:49:30;48.47;;;28.07;;
8319;SDS011;4197;42.130;24.746;2024-03-08T04:51:58;44.47;;;25.93;;
8319;SDS011;4197;42.130;24.746;2024-03-08T04:54:31;45.23;;;26.23;;
8319;SDS011;4197;42.130;24.746;2024-03-08T04:57:01;51.37;;;28.67;;
8319;SDS011;4197;42.130;24.746;2024-03-08T04:59:34;44.77;;;25.63;;
8319;SDS011;4197;42.130;24.746;2024-03-08T05:02:03;49.60;;;28.30;;
8319;SDS011;4197;42.130;24.746;2024-03-08T05:04:31;49.00;;;26.60;;
8319;SDS011;4197;42.130;24.746;2024-03-08T05:07:00;54.57;;;31.17;;
8319;SDS011;4197;42.130;24.746;2024-03-08T05:09:28;44.90;;;26.53;;
8319;SDS011;4197;42.130;24.746;2024-03-08T05:11:58;47.00;;;28.53;;
8319;SDS011;4197;42.130;24.746;2024-03-08T05:14:29;51.03;;;28.73;;
8319;SDS011;4197;42.130;24.746;2024-03-08T05:16:58;49.70;;;29.20;;
8319;SDS011;4197;42.130;24.746;2024-03-08T05:19:27;47.87;;;28.03;;
8319;SDS011;4197;42.130;24.746;2024-03-08T05:22:00;50.57;;;30.33;;
8319;SDS011;4197;42.130;24.746;2024-03-08T05:24:29;46.53;;;27.93;;
8319;SDS011;4197;42.130;24.746;2024-03-08T05:26:57;51.53;;;29.67;;
8319;SDS011;4197;42.130;24.746;2024-03-08T05:29:27;47.27;;;29.63;;
8319;SDS011;4197;42.130;24.746;2024-03-08T05:31:57;62.37;;;37.03;;
8319;SDS011;4197;42.130;24.746;2024-03-08T05:34:26;55.40;;;32.77;;
8319;SDS011;4197;42.130;24.746;2024-03-08T05:36:55;46.63;;;28.87;;
8319;SDS011;4197;42.130;24.746;2024-03-08T05:39:25;50.27;;;28.67;;
8319;SDS011;4197;42.130;24.746;2024-03-08T05:41:53;53.97;;;29.93;;
8319;SDS011;4197;42.130;24.746;2024-03-08T05:44:22;46.80;;;26.50;;
8319;SDS011;4197;42.130;24.746;2024-03-08T05:46:51;51.17;;;29.23;;
8319;SDS011;4197;42.130;24.746;2024-03-08T05:49:20;50.87;;;30.23;;
8319;SDS011;4197;42.130;24.746;2024-03-08T05:51:49;49.73;;;29.20;;
8319;SDS011;4197;42.130;24.746;2024-03-08T05:54:17;49.60;;;29.40;;
8319;SDS011;4197;42.130;24.746;2024-03-08T05:56:49;57.10;;;29.73;;
8319;SDS011;4197;42.130;24.746;2024-03-08T05:59:19;49.60;;;29.30;;
8319;SDS011;4197;42.130;24.746;2024-03-08T06:01:50;49.03;;;27.80;;
8319;SDS011;4197;42.130;24.746;2024-03-08T06:04:18;51.27;;;32.37;;
8319;SDS011;4197;42.130;24.746;2024-03-08T06:06:48;50.83;;;29.50;;
8319;SDS011;4197;42.130;24.746;2024-03-08T06:09:18;50.47;;;29.83;;
8319;SDS011;4197;42.130;24.746;2024-03-08T06:11:51;50.13;;;30.07;;
8319;SDS011;4197;42.130;24.746;2024-03-08T06:14:21;56.27;;;28.80;;
8319;SDS011;4197;42.130;24.746;2024-03-08T06:16:50;51.87;;;30.53;;
8319;SDS011;4197;42.130;24.746;2024-03-08T06:19:18;50.30;;;30.03;;
8319;SDS011;4197;42.130;24.746;2024-03-08T06:21:48;51.17;;;30.20;;
8319;SDS011;4197;42.130;24.746;2024-03-08T06:24:16;48.90;;;29.93;;
8319;SDS011;4197;42.130;24.746;2024-03-08T06:26:45;53.43;;;32.23;;
8319;SDS011;4197;42.130;24.746;2024-03-08T06:29:15;51.33;;;30.77;;
8319;SDS011;4197;42.130;24.746;2024-03-08T06:31:43;53.80;;;30.90;;
8319;SDS011;4197;42.130;24.746;2024-03-08T06:34:12;58.03;;;31.97;;
8319;SDS011;4197;42.130;24.746;2024-03-08T06:36:42;52.43;;;28.47;;
8319;SDS011;4197;42.130;24.746;2024-03-08T06:39:11;49.23;;;28.83;;
8319;SDS011;4197;42.130;24.746;2024-03-08T06:41:40;50.87;;;30.33;;
8319;SDS011;4197;42.130;24.746;2024-03-08T06:44:10;56.50;;;29.83;;
8319;SDS011;4197;42.130;24.746;2024-03-08T06:46:38;50.53;;;29.60;;
8319;SDS011;4197;42.130;24.746;2024-03-08T06:49:07;46.83;;;28.10;;
8319;SDS011;4197;42.130;24.746;2024-03-08T06:51:37;55.63;;;31.77;;
8319;SDS011;4197;42.130;24.746;2024-03-08T06:54:07;49.53;;;29.63;;
8319;SDS011;4197;42.130;24.746;2024-03-08T06:56:37;52.17;;;31.30;;
8319;SDS011;4197;42.130;24.746;2024-03-08T06:59:06;55.73;;;31.50;;
8319;SDS011;4197;42.130;24.746;2024-03-08T07:01:39;57.60;;;32.97;;
8319;SDS011;4197;42.130;24.746;2024-03-08T07:04:07;53.07;;;33.17;;
8319;SDS011;4197;42.130;24.746;2024-03-08T07:06:38;55.73;;;31.67;;
8319;SDS011;4197;42.130;24.746;2024-03-08T07:09:07;50.90;;;31.30;;
8319;SDS011;4197;42.130;24.746;2024-03-08T07:11:35;50.67;;;30.17;;
8319;SDS011;4197;42.130;24.746;2024-03-08T07:14:09;49.50;;;30.67;;
8319;SDS011;4197;42.130;24.746;2024-03-08T07:16:38;51.93;;;29.77;;
8319;SDS011;4197;42.130;24.746;2024-03-08T07:19:08;47.50;;;28.90;;
8319;SDS011;4197;42.130;24.746;2024-03-08T07:21:36;44.07;;;27.43;;
8319;SDS011;4197;42.130;24.746;2024-03-08T07:24:04;49.47;;;28.90;;
8319;SDS011;4197;42.130;24.746;2024-03-08T07:26:52;47.43;;;29.87;;
8319;SDS011;4197;42.130;24.746;2024-03-08T07:29:22;44.50;;;28.70;;
8319;SDS011;4197;42.130;24.746;2024-03-08T07:31:50;42.17;;;25.93;;
8319;SDS011;4197;42.130;24.746;2024-03-08T07:34:28;40.43;;;25.53;;
8319;SDS011;4197;42.130;24.746;2024-03-08T07:36:58;42.83;;;26.43;;
8319;SDS011;4197;42.130;24.746;2024-03-08T07:39:26;37.60;;;23.43;;
8319;SDS011;4197;42.130;24.746;2024-03-08T07:41:56;42.57;;;25.50;;
8319;SDS011;4197;42.130;24.746;2024-03-08T07:44:25;42.33;;;25.97;;
8319;SDS011;4197;42.130;24.746;2024-03-08T07:46:53;42.60;;;25.97;;
8319;SDS011;4197;42.130;24.746;2024-03-08T07:49:23;41.33;;;25.93;;
8319;SDS011;4197;42.130;24.746;2024-03-08T07:51:52;44.60;;;25.57;;
8319;SDS011;4197;42.130;24.746;2024-03-08T07:54:20;42.13;;;27.27;;
8319;SDS011;4197;42.130;24.746;2024-03-08T07:56:48;42.07;;;26.47;;
8319;SDS011;4197;42.130;24.746;2024-03-08T07:59:19;42.03;;;26.80;;
8319;SDS011;4197;42.130;24.746;2024-03-08T08:01:48;42.27;;;24.93;;
8319;SDS011;4197;42.130;24.746;2024-03-08T08:04:16;39.93;;;24.67;;
8319;SDS011;4197;42.130;24.746;2024-03-08T08:06:45;40.93;;;25.30;;
8319;SDS011;4197;42.130;24.746;2024-03-08T08:09:14;38.30;;;24.20;;
8319;SDS011;4197;42.130;24.746;2024-03-08T08:11:42;42.93;;;24.13;;
8319;SDS011;4197;42.130;24.746;2024-03-08T08:14:10;43.23;;;25.70;;
8319;SDS011;4197;42.130;24.746;2024-03-08T08:16:40;38.83;;;24.63;;
8319;SDS011;4197;42.130;24.746;2024-03-08T08:19:09;40.40;;;24.27;;
8319;SDS011;4197;42.130;24.746;2024-03-08T08:21:40;37.73;;;22.27;;
8319;SDS011;4197;42.130;24.746;2024-03-08T08:24:09;35.43;;;23.10;;
8319;SDS011;4197;42.130;24.746;2024-03-08T08:26:38;34.67;;;22.40;;
8319;SDS011;4197;42.130;24.746;2024-03-08T08:29:06;35.93;;;22.33;;
8319;SDS011;4197;42.130;24.746;2024-03-08T08:31:34;32.53;;;19.97;;
8319;SDS011;4197;42.130;24.746;2024-03-08T08:34:05;31.27;;;20.57;;
8319;SDS011;4197;42.130;24.746;2024-03-08T08:36:34;32.20;;;20.47;;
8319;SDS011;4197;42.130;24.746;2024-03-08T08:39:03;37.17;;;22.60;;
8319;SDS011;4197;42.130;24.746;2024-03-08T08:41:37;31.90;;;19.90;;
8319;SDS011;4197;42.130;24.746;2024-03-08T08:44:08;29.50;;;19.53;;
8319;SDS011;4197;42.130;24.746;2024-03-08T08:46:42;33.27;;;20.97;;
8319;SDS011;4197;42.130;24.746;2024-03-08T08:49:11;24.77;;;16.43;;
8319;SDS011;4197;42.130;24.746;2024-03-08T08:51:41;24.67;;;16.73;;
8319;SDS011;4197;42.130;24.746;2024-03-08T08:54:09;25.67;;;17.83;;
8319;SDS011;4197;42.130;24.746;2024-03-08T08:56:41;29.80;;;18.33;;
8319;SDS011;4197;42.130;24.746;2024-03-08T08:59:10;25.87;;;18.53;;
8319;SDS011;4197;42.130;24.746;2024-03-08T09:01:43;28.77;;;18.17;;
8319;SDS011;4197;42.130;24.746;2024-03-08T09:04:15;28.67;;;18.27;;
8319;SDS011;4197;42.130;24.746;2024-03-08T09:06:43;26.20;;;18.07;;
8319;SDS011;4197;42.130;24.746;2024-03-08T09:09:11;28.50;;;18.93;;
8319;SDS011;4197;42.130;24.746;2024-03-08T09:11:40;28.00;;;20.10;;
8319;SDS011;4197;42.130;24.746;2024-03-08T09:14:09;27.20;;;18.47;;
8319;SDS011;4197;42.130;24.746;2024-03-08T09:16:38;26.60;;;17.60;;
8319;SDS011;4197;42.130;24.746;2024-03-08T09:19:07;26.43;;;17.67;;
8319;SDS011;4197;42.130;24.746;2024-03-08T09:21:39;27.00;;;17.37;;
8319;SDS011;4197;42.130;24.746;2024-03-08T09:24:07;24.23;;;16.30;;
8319;SDS011;4197;42.130;24.746;2024-03-08T09:26:35;22.50;;;17.23;;
8319;SDS011;4197;42.130;24.746;2024-03-08T09:29:04;23.50;;;17.10;;
8319;SDS011;4197;42.130;24.746;2024-03-08T09:31:33;21.30;;;16.07;;
8319;SDS011;4197;42.130;24.746;2024-03-08T09:34:02;24.67;;;16.93;;
8319;SDS011;4197;42.130;24.746;2024-03-08T09:36:30;23.27;;;16.07;;
8319;SDS011;4197;42.130;24.746;2024-03-08T09:39:01;25.00;;;15.70;;
8319;SDS011;4197;42.130;24.746;2024-03-08T09:41:29;22.93;;;16.27;;
8319;SDS011;4197;42.130;24.746;2024-03-08T09:43:58;20.77;;;16.17;;
8319;SDS011;4197;42.130;24.746;2024-03-08T09:46:27;21.27;;;15.53;;
8319;SDS011;4197;42.130;24.746;2024-03-08T09:48:55;29.13;;;17.27;;
8319;SDS011;4197;42.130;24.746;2024-03-08T09:51:25;24.57;;;16.07;;
8319;SDS011;4197;42.130;24.746;2024-03-08T09:53:57;23.47;;;14.93;;
8319;SDS011;4197;42.130;24.746;2024-03-08T09:56:31;18.87;;;13.40;;
8319;SDS011;4197;42.130;24.746;2024-03-08T09:59:00;20.53;;;13.90;;
8319;SDS011;4197;42.130;24.746;2024-03-08T10:01:59;23.47;;;14.93;;
8319;SDS011;4197;42.130;24.746;2024-03-08T10:04:29;20.73;;;14.43;;
8319;SDS011;4197;42.130;24.746;2024-03-08T10:06:58;22.30;;;15.77;;
8319;SDS011;4197;42.130;24.746;2024-03-08T10:09:27;23.73;;;14.73;;
8319;SDS011;4197;42.130;24.746;2024-03-08T10:11:57;23.00;;;15.07;;
8319;SDS011;4197;42.130;24.746;2024-03-08T10:14:25;21.90;;;14.13;;
8319;SDS011;4197;42.130;24.746;2024-03-08T10:16:54;20.13;;;14.93;;
8319;SDS011;4197;42.130;24.746;2024-03-08T10:19:26;22.10;;;15.63;;
8319;SDS011;4197;42.130;24.746;2024-03-08T10:21:56;26.03;;;15.60;;
8319;SDS011;4197;42.130;24.746;2024-03-08T10:24:26;24.50;;;14.30;;
8319;SDS011;4197;42.130;24.746;2024-03-08T10:26:56;21.27;;;14.73;;
8319;SDS011;4197;42.130;24.746;2024-03-08T10:29:31;22.43;;;15.33;;
8319;SDS011;4197;42.130;24.746;2024-03-08T10:31:59;25.07;;;15.80;;
8319;SDS011;4197;42.130;24.746;2024-03-08T10:34:32;26.07;;;17.80;;
8319;SDS011;4197;42.130;24.746;2024-03-08T10:37:01;26.80;;;17.57;;
8319;SDS011;4197;42.130;24.746;2024-03-08T10:39:33;22.37;;;15.67;;
8319;SDS011;4197;42.130;24.746;2024-03-08T10:42:05;25.60;;;15.70;;
8319;SDS011;4197;42.130;24.746;2024-03-08T10:44:40;25.20;;;15.80;;
8319;SDS011;4197;42.130;24.746;2024-03-08T10:47:18;24.40;;;16.23;;
8319;SDS011;4197;42.130;24.746;2024-03-08T10:49:54;24.03;;;16.43;;
8319;SDS011;4197;42.130;24.746;2024-03-08T10:52:24;24.20;;;15.67;;
8319;SDS011;4197;42.130;24.746;2024-03-08T10:54:52;22.23;;;14.37;;
8319;SDS011;4197;42.130;24.746;2024-03-08T10:57:24;27.27;;;14.93;;
8319;SDS011;4197;42.130;24.746;2024-03-08T10:59:53;23.33;;;15.83;;
8319;SDS011;4197;42.130;24.746;2024-03-08T11:02:25;20.80;;;13.33;;
8319;SDS011;4197;42.130;24.746;2024-03-08T11:04:55;20.53;;;14.20;;
8319;SDS011;4197;42.130;24.746;2024-03-08T11:07:24;21.23;;;15.93;;
8319;SDS011;4197;42.130;24.746;2024-03-08T11:09:54;20.17;;;14.03;;
8319;SDS011;4197;42.130;24.746;2024-03-08T11:12:26;20.47;;;15.50;;
8319;SDS011;4197;42.130;24.746;2024-03-08T11:14:59;17.70;;;13.07;;
8319;SDS011;4197;42.130;24.746;2024-03-08T11:17:41;20.40;;;13.70;;
8319;SDS011;4197;42.130;24.746;2024-03-08T11:20:13;23.30;;;15.53;;
8319;SDS011;4197;42.130;24.746;2024-03-08T11:22:47;21.03;;;13.80;;
8319;SDS011;4197;42.130;24.746;2024-03-08T11:25:31;18.97;;;13.97;;
8319;SDS011;4197;42.130;24.746;2024-03-08T11:33:59;19.33;;;14.27;;
8319;SDS011;4197;42.130;24.746;2024-03-08T11:36:29;20.27;;;13.53;;
8319;SDS011;4197;42.130;24.746;2024-03-08T11:38:58;17.77;;;13.93;;
8319;SDS011;4197;42.130;24.746;2024-03-08T11:41:35;21.30;;;14.60;;
8319;SDS011;4197;42.130;24.746;2024-03-08T11:44:06;17.77;;;14.20;;
8319;SDS011;4197;42.130;24.746;2024-03-08T11:46:38;19.17;;;13.03;;
8319;SDS011;4197;42.130;24.746;2024-03-08T11:49:13;16.20;;;12.43;;
8319;SDS011;4197;42.130;24.746;2024-03-08T11:51:41;16.37;;;12.00;;
8319;SDS011;4197;42.130;24.746;2024-03-08T11:54:12;18.40;;;12.23;;
8319;SDS011;4197;42.130;24.746;2024-03-08T11:56:41;18.83;;;12.87;;
8319;SDS011;4197;42.130;24.746;2024-03-08T11:59:12;21.30;;;12.20;;
8319;SDS011;4197;42.130;24.746;2024-03-08T12:01:41;17.73;;;13.10;;
8319;SDS011;4197;42.130;24.746;2024-03-08T12:04:11;18.57;;;11.63;;
8319;SDS011;4197;42.130;24.746;2024-03-08T12:06:40;15.00;;;10.80;;
8319;SDS011;4197;42.130;24.746;2024-03-08T12:09:09;15.80;;;11.83;;
8319;SDS011;4197;42.130;24.746;2024-03-08T12:11:38;15.17;;;10.67;;
8319;SDS011;4197;42.130;24.746;2024-03-08T12:14:06;19.30;;;11.07;;
8319;SDS011;4197;42.130;24.746;2024-03-08T12:16:37;17.67;;;12.07;;
8319;SDS011;4197;42.130;24.746;2024-03-08T12:19:06;17.33;;;10.43;;
8319;SDS011;4197;42.130;24.746;2024-03-08T12:21:36;14.97;;;11.20;;
8319;SDS011;4197;42.130;24.746;2024-03-08T12:24:07;16.40;;;11.67;;
8319;SDS011;4197;42.130;24.746;2024-03-08T12:26:37;17.63;;;12.43;;
8319;SDS011;4197;42.130;24.746;2024-03-08T12:29:20;15.40;;;11.57;;
8319;SDS011;4197;42.130;24.746;2024-03-08T12:31:52;11.70;;;9.80;;
8319;SDS011;4197;42.130;24.746;2024-03-08T12:34:21;13.70;;;10.67;;
8319;SDS011;4197;42.130;24.746;2024-03-08T12:36:51;17.20;;;11.90;;
8319;SDS011;4197;42.130;24.746;2024-03-08T12:39:21;14.43;;;10.70;;
8319;SDS011;4197;42.130;24.746;2024-03-08T12:41:54;18.73;;;12.63;;
8319;SDS011;4197;42.130;24.746;2024-03-08T12:44:24;16.90;;;11.70;;
8319;SDS011;4197;42.130;24.746;2024-03-08T12:46:58;22.77;;;12.30;;
8319;SDS011;4197;42.130;24.746;2024-03-08T12:49:27;19.70;;;12.37;;
8319;SDS011;4197;42.130;24.746;2024-03-08T12:51:56;17.67;;;12.37;;
8319;SDS011;4197;42.130;24.746;2024-03-08T12:54:25;20.73;;;12.77;;
8319;SDS011;4197;42.130;24.746;2024-03-08T12:56:53;15.70;;;10.80;;
8319;SDS011;4197;42.130;24.746;2024-03-08T12:59:21;14.93;;;10.80;;
8319;SDS011;4197;42.130;24.746;2024-03-08T13:01:50;14.10;;;11.30;;
8319;SDS011;4197;42.130;24.746;2024-03-08T13:04:22;16.07;;;10.37;;
8319;SDS011;4197;42.130;24.746;2024-03-08T13:06:52;16.10;;;10.83;;
8319;SDS011;4197;42.130;24.746;2024-03-08T13:09:22;16.80;;;10.10;;
8319;SDS011;4197;42.130;24.746;2024-03-08T13:11:54;16.40;;;10.27;;
8319;SDS011;4197;42.130;24.746;2024-03-08T13:14:25;15.63;;;10.20;;
8319;SDS011;4197;42.130;24.746;2024-03-08T13:16:54;17.07;;;9.70;;
8319;SDS011;4197;42.130;24.746;2024-03-08T13:19:24;13.40;;;9.77;;
8319;SDS011;4197;42.130;24.746;2024-03-08T13:21:54;15.10;;;9.97;;
8319;SDS011;4197;42.130;24.746;2024-03-08T13:24:23;15.00;;;9.87;;
8319;SDS011;4197;42.130;24.746;2024-03-08T13:26:51;17.83;;;10.00;;
8319;SDS011;4197;42.130;24.746;2024-03-08T13:29:19;17.63;;;10.77;;
8319;SDS011;4197;42.130;24.746;2024-03-08T13:31:48;14.53;;;9.80;;
8319;SDS011;4197;42.130;24.746;2024-03-08T13:34:19;17.90;;;9.67;;
8319;SDS011;4197;42.130;24.746;2024-03-08T13:36:56;12.83;;;9.37;;
8319;SDS011;4197;42.130;24.746;2024-03-08T13:39:27;14.27;;;9.77;;
8319;SDS011;4197;42.130;24.746;2024-03-08T13:41:58;15.73;;;9.23;;
8319;SDS011;4197;42.130;24.746;2024-03-08T13:44:26;14.87;;;9.43;;
8319;SDS011;4197;42.130;24.746;2024-03-08T13:46:56;13.80;;;8.67;;
8319;SDS011;4197;42.130;24.746;2024-03-08T13:49:25;14.83;;;9.17;;
8319;SDS011;4197;42.130;24.746;2024-03-08T13:51:55;12.70;;;9.73;;
8319;SDS011;4197;42.130;24.746;2024-03-08T13:54:25;14.67;;;9.23;;
8319;SDS011;4197;42.130;24.746;2024-03-08T13:56:57;13.47;;;8.83;;
8319;SDS011;4197;42.130;24.746;2024-03-08T13:59:27;13.93;;;8.53;;
8319;SDS011;4197;42.130;24.746;2024-03-08T14:01:56;14.43;;;8.57;;
8319;SDS011;4197;42.130;24.746;2024-03-08T14:04:26;11.27;;;8.20;;
8319;SDS011;4197;42.130;24.746;2024-03-08T14:06:56;10.63;;;8.17;;
8319;SDS011;4197;42.130;24.746;2024-03-08T14:09:30;13.43;;;8.47;;
8319;SDS011;4197;42.130;24.746;2024-03-08T14:11:58;10.10;;;8.03;;
8319;SDS011;4197;42.130;24.746;2024-03-08T14:14:27;19.70;;;10.90;;
8319;SDS011;4197;42.130;24.746;2024-03-08T14:16:56;18.90;;;10.90;;
8319;SDS011;4197;42.130;24.746;2024-03-08T14:19:25;14.40;;;9.87;;
8319;SDS011;4197;42.130;24.746;2024-03-08T14:21:55;14.43;;;9.97;;
8319;SDS011;4197;42.130;24.746;2024-03-08T14:24:25;18.67;;;10.43;;
8319;SDS011;4197;42.130;24.746;2024-03-08T14:26:56;15.77;;;10.30;;
8319;SDS011;4197;42.130;24.746;2024-03-08T14:29:25;12.80;;;9.53;;
8319;SDS011;4197;42.130;24.746;2024-03-08T14:31:57;13.97;;;10.00;;
8319;SDS011;4197;42.130;24.746;2024-03-08T14:34:26;15.53;;;10.63;;
8319;SDS011;4197;42.130;24.746;2024-03-08T14:36:57;16.77;;;10.37;;
8319;SDS011;4197;42.130;24.746;2024-03-08T14:39:29;15.17;;;9.70;;
8319;SDS011;4197;42.130;24.746;2024-03-08T14:42:00;14.13;;;9.77;;
8319;SDS011;4197;42.130;24.746;2024-03-08T14:44:30;16.67;;;11.10;;
8319;SDS011;4197;42.130;24.746;2024-03-08T14:46:58;17.30;;;11.33;;
8319;SDS011;4197;42.130;24.746;2024-03-08T14:49:27;14.73;;;10.67;;
8319;SDS011;4197;42.130;24.746;2024-03-08T14:51:55;14.30;;;11.17;;
8319;SDS011;4197;42.130;24.746;2024-03-08T14:54:26;16.37;;;11.47;;
8319;SDS011;4197;42.130;24.746;2024-03-08T14:56:54;14.27;;;10.97;;